sensor_id;sensor_type;location;lat;lon;timestamp;temperature;humidity
63313;DHT22;49442;45.640;13.812;2023-08-08T00:00:26;19.10;99.00
63313;DHT22;49442;45.640;13.812;2023-08-08T00:02:51;19.10;99.20
63313;DHT22;49442;45.640;13.812;2023-08-08T00:05:17;19.10;99.40
63313;DHT22;49442;45.640;13.812;2023-08-08T00:07:43;19.10;99.90
63313;DHT22;49442;45.640;13.812;2023-08-08T00:10:09;19.00;99.90
63313;DHT22;49442;45.640;13.812;2023-08-08T00:12:35;18.90;99.90
63313;DHT22;49442;45.640;13.812;2023-08-08T00:15:00;18.80;99.90
63313;DHT22;49442;45.640;13.812;2023-08-08T00:17:26;18.60;99.90
63313;DHT22;49442;45.640;13.812;2023-08-08T00:19:52;18.40;99.90
63313;DHT22;49442;45.640;13.812;2023-08-08T00:22:17;18.30;99.90
63313;DHT22;49442;45.640;13.812;2023-08-08T00:24:43;18.30;99.90
63313;DHT22;49442;45.640;13.812;2023-08-08T00:27:09;18.10;99.90
63313;DHT22;49442;45.640;13.812;2023-08-08T00:29:34;18.00;99.90
63313;DHT22;49442;45.640;13.812;2023-08-08T00:32:00;18.00;99.90
63313;DHT22;49442;45.640;13.812;2023-08-08T00:34:26;18.00;99.90
63313;DHT22;49442;45.640;13.812;2023-08-08T00:36:51;17.80;99.90
63313;DHT22;49442;45.640;13.812;2023-08-08T00:39:17;17.60;99.90
63313;DHT22;49442;45.640;13.812;2023-08-08T00:41:43;17.50;99.90
63313;DHT22;49442;45.640;13.812;2023-08-08T00:44:09;17.50;99.90
63313;DHT22;49442;45.640;13.812;2023-08-08T00:46:35;17.40;99.90
63313;DHT22;49442;45.640;13.812;2023-08-08T00:49:01;17.40;99.90
63313;DHT22;49442;45.640;13.812;2023-08-08T00:51:27;17.40;99.90
63313;DHT22;49442;45.640;13.812;2023-08-08T00:53:53;17.50;99.90
63313;DHT22;49442;45.640;13.812;2023-08-08T00:56:19;17.60;99.90
63313;DHT22;49442;45.640;13.812;2023-08-08T00:58:45;17.80;99.90
63313;DHT22;49442;45.640;13.812;2023-08-08T01:01:12;17.90;99.90
63313;DHT22;49442;45.640;13.812;2023-08-08T01:03:38;18.00;99.90
63313;DHT22;49442;45.640;13.812;2023-08-08T01:06:29;18.20;99.90
63313;DHT22;49442;45.640;13.812;2023-08-08T01:12:05;18.30;99.70
63313;DHT22;49442;45.640;13.812;2023-08-08T01:14:34;18.40;99.00
63313;DHT22;49442;45.640;13.812;2023-08-08T01:17:00;18.50;99.20
63313;DHT22;49442;45.640;13.812;2023-08-08T01:19:29;18.50;98.70
63313;DHT22;49442;45.640;13.812;2023-08-08T01:22:01;18.50;99.30
63313;DHT22;49442;45.640;13.812;2023-08-08T01:24:29;18.50;98.90
63313;DHT22;49442;45.640;13.812;2023-08-08T01:26:59;18.50;99.30
63313;DHT22;49442;45.640;13.812;2023-08-08T01:29:27;18.50;98.40
63313;DHT22;49442;45.640;13.812;2023-08-08T01:31:53;18.50;98.80
63313;DHT22;49442;45.640;13.812;2023-08-08T01:34:19;18.50;98.90
63313;DHT22;49442;45.640;13.812;2023-08-08T01:37:07;18.50;99.20
63313;DHT22;49442;45.640;13.812;2023-08-08T01:39:35;18.50;98.70
63313;DHT22;49442;45.640;13.812;2023-08-08T01:42:02;18.50;98.80
63313;DHT22;49442;45.640;13.812;2023-08-08T01:44:28;18.50;99.30
63313;DHT22;49442;45.640;13.812;2023-08-08T01:46:54;18.50;99.10
63313;DHT22;49442;45.640;13.812;2023-08-08T01:49:20;18.50;98.40
63313;DHT22;49442;45.640;13.812;2023-08-08T01:51:46;18.50;98.80
63313;DHT22;49442;45.640;13.812;2023-08-08T01:54:14;18.40;99.40
63313;DHT22;49442;45.640;13.812;2023-08-08T01:56:39;18.40;98.90
63313;DHT22;49442;45.640;13.812;2023-08-08T01:59:05;18.40;98.50
63313;DHT22;49442;45.640;13.812;2023-08-08T02:01:31;18.40;98.60
63313;DHT22;49442;45.640;13.812;2023-08-08T02:03:56;18.30;98.60
63313;DHT22;49442;45.640;13.812;2023-08-08T02:06:22;18.30;99.00
63313;DHT22;49442;45.640;13.812;2023-08-08T02:08:48;18.30;98.80
63313;DHT22;49442;45.640;13.812;2023-08-08T02:11:13;18.30;98.60
63313;DHT22;49442;45.640;13.812;2023-08-08T02:13:39;18.20;98.60
63313;DHT22;49442;45.640;13.812;2023-08-08T02:16:05;18.30;98.20
63313;DHT22;49442;45.640;13.812;2023-08-08T02:18:30;18.30;98.30
63313;DHT22;49442;45.640;13.812;2023-08-08T02:20:56;18.30;98.40
63313;DHT22;49442;45.640;13.812;2023-08-08T02:23:22;18.40;98.00
63313;DHT22;49442;45.640;13.812;2023-08-08T02:25:47;18.40;97.80
63313;DHT22;49442;45.640;13.812;2023-08-08T02:28:13;18.30;98.20
63313;DHT22;49442;45.640;13.812;2023-08-08T02:30:39;18.40;97.70
63313;DHT22;49442;45.640;13.812;2023-08-08T02:33:04;18.30;97.50
63313;DHT22;49442;45.640;13.812;2023-08-08T02:35:30;18.40;97.30
63313;DHT22;49442;45.640;13.812;2023-08-08T02:37:56;18.40;97.20
63313;DHT22;49442;45.640;13.812;2023-08-08T02:40:22;18.40;97.70
63313;DHT22;49442;45.640;13.812;2023-08-08T02:42:52;18.40;97.50
63313;DHT22;49442;45.640;13.812;2023-08-08T02:45:18;18.40;97.20
63313;DHT22;49442;45.640;13.812;2023-08-08T02:47:43;18.40;97.30
63313;DHT22;49442;45.640;13.812;2023-08-08T02:50:09;18.30;97.30
63313;DHT22;49442;45.640;13.812;2023-08-08T02:52:35;18.30;97.50
63313;DHT22;49442;45.640;13.812;2023-08-08T02:55:01;18.30;97.30
63313;DHT22;49442;45.640;13.812;2023-08-08T02:57:28;18.20;97.50
63313;DHT22;49442;45.640;13.812;2023-08-08T02:59:53;18.20;97.40
63313;DHT22;49442;45.640;13.812;2023-08-08T03:02:19;18.20;97.10
63313;DHT22;49442;45.640;13.812;2023-08-08T03:04:45;18.20;97.10
63313;DHT22;49442;45.640;13.812;2023-08-08T03:07:10;18.20;97.40
63313;DHT22;49442;45.640;13.812;2023-08-08T03:09:36;18.20;97.30
63313;DHT22;49442;45.640;13.812;2023-08-08T03:12:02;18.20;97.20
63313;DHT22;49442;45.640;13.812;2023-08-08T03:14:28;18.20;97.40
63313;DHT22;49442;45.640;13.812;2023-08-08T03:16:54;18.10;97.50
63313;DHT22;49442;45.640;13.812;2023-08-08T03:19:19;18.10;97.60
63313;DHT22;49442;45.640;13.812;2023-08-08T03:21:45;18.00;97.70
63313;DHT22;49442;45.640;13.812;2023-08-08T03:24:11;18.00;98.00
63313;DHT22;49442;45.640;13.812;2023-08-08T03:26:36;17.90;97.60
63313;DHT22;49442;45.640;13.812;2023-08-08T03:29:02;17.90;98.10
63313;DHT22;49442;45.640;13.812;2023-08-08T03:31:28;18.00;97.80
63313;DHT22;49442;45.640;13.812;2023-08-08T03:33:53;17.90;97.70
63313;DHT22;49442;45.640;13.812;2023-08-08T03:36:19;17.90;97.80
63313;DHT22;49442;45.640;13.812;2023-08-08T03:38:45;17.90;97.90
63313;DHT22;49442;45.640;13.812;2023-08-08T03:41:12;17.80;98.10
63313;DHT22;49442;45.640;13.812;2023-08-08T03:43:39;17.80;98.30
63313;DHT22;49442;45.640;13.812;2023-08-08T03:46:05;17.80;98.00
63313;DHT22;49442;45.640;13.812;2023-08-08T03:48:30;17.80;97.90
63313;DHT22;49442;45.640;13.812;2023-08-08T03:50:56;17.80;98.00
63313;DHT22;49442;45.640;13.812;2023-08-08T03:53:22;17.80;97.80
63313;DHT22;49442;45.640;13.812;2023-08-08T03:55:47;17.90;97.80
63313;DHT22;49442;45.640;13.812;2023-08-08T03:58:13;17.90;98.00
63313;DHT22;49442;45.640;13.812;2023-08-08T04:00:39;17.90;98.50
63313;DHT22;49442;45.640;13.812;2023-08-08T04:03:13;17.80;97.80
63313;DHT22;49442;45.640;13.812;2023-08-08T04:05:46;17.80;98.10
63313;DHT22;49442;45.640;13.812;2023-08-08T04:08:15;17.80;98.00
63313;DHT22;49442;45.640;13.812;2023-08-08T04:10:41;17.80;97.50
63313;DHT22;49442;45.640;13.812;2023-08-08T04:13:07;17.90;97.50
63313;DHT22;49442;45.640;13.812;2023-08-08T04:15:33;17.90;97.50
63313;DHT22;49442;45.640;13.812;2023-08-08T04:17:59;17.90;97.30
63313;DHT22;49442;45.640;13.812;2023-08-08T04:20:24;17.90;97.40
63313;DHT22;49442;45.640;13.812;2023-08-08T04:22:50;17.90;97.30
63313;DHT22;49442;45.640;13.812;2023-08-08T04:25:16;17.90;97.50
63313;DHT22;49442;45.640;13.812;2023-08-08T04:27:41;17.90;97.70
63313;DHT22;49442;45.640;13.812;2023-08-08T04:30:08;17.90;97.70
63313;DHT22;49442;45.640;13.812;2023-08-08T04:32:34;17.90;98.20
63313;DHT22;49442;45.640;13.812;2023-08-08T04:35:00;17.90;97.90
63313;DHT22;49442;45.640;13.812;2023-08-08T04:37:25;17.90;98.00
63313;DHT22;49442;45.640;13.812;2023-08-08T04:39:51;17.90;97.80
63313;DHT22;49442;45.640;13.812;2023-08-08T04:42:17;18.00;98.20
63313;DHT22;49442;45.640;13.812;2023-08-08T04:44:42;18.00;98.60
63313;DHT22;49442;45.640;13.812;2023-08-08T04:47:08;17.90;98.40
63313;DHT22;49442;45.640;13.812;2023-08-08T04:49:34;18.00;98.60
63313;DHT22;49442;45.640;13.812;2023-08-08T04:51:59;18.00;98.80
63313;DHT22;49442;45.640;13.812;2023-08-08T04:54:25;18.00;98.70
63313;DHT22;49442;45.640;13.812;2023-08-08T04:56:51;18.00;98.80
63313;DHT22;49442;45.640;13.812;2023-08-08T04:59:16;18.00;98.80
63313;DHT22;49442;45.640;13.812;2023-08-08T05:01:42;18.00;98.50
63313;DHT22;49442;45.640;13.812;2023-08-08T05:04:08;18.10;98.40
63313;DHT22;49442;45.640;13.812;2023-08-08T05:06:34;18.20;98.80
63313;DHT22;49442;45.640;13.812;2023-08-08T05:09:00;18.20;98.70
63313;DHT22;49442;45.640;13.812;2023-08-08T05:11:25;18.20;99.30
63313;DHT22;49442;45.640;13.812;2023-08-08T05:13:51;18.30;97.70
63313;DHT22;49442;45.640;13.812;2023-08-08T05:16:18;18.40;97.50
63313;DHT22;49442;45.640;13.812;2023-08-08T05:18:43;18.50;97.60
63313;DHT22;49442;45.640;13.812;2023-08-08T05:21:12;18.50;98.10
63313;DHT22;49442;45.640;13.812;2023-08-08T05:23:37;18.50;98.40
63313;DHT22;49442;45.640;13.812;2023-08-08T05:26:03;18.50;98.60
63313;DHT22;49442;45.640;13.812;2023-08-08T05:28:29;18.50;98.40
63313;DHT22;49442;45.640;13.812;2023-08-08T05:30:55;18.60;98.50
63313;DHT22;49442;45.640;13.812;2023-08-08T05:33:21;18.50;98.60
63313;DHT22;49442;45.640;13.812;2023-08-08T05:35:47;18.60;99.80
63313;DHT22;49442;45.640;13.812;2023-08-08T05:38:13;18.60;99.20
63313;DHT22;49442;45.640;13.812;2023-08-08T05:40:38;18.60;98.40
63313;DHT22;49442;45.640;13.812;2023-08-08T05:43:04;18.70;97.90
63313;DHT22;49442;45.640;13.812;2023-08-08T05:45:29;18.70;99.30
63313;DHT22;49442;45.640;13.812;2023-08-08T05:47:55;18.70;98.60
63313;DHT22;49442;45.640;13.812;2023-08-08T05:50:22;18.80;99.30
63313;DHT22;49442;45.640;13.812;2023-08-08T05:52:47;18.80;98.70
63313;DHT22;49442;45.640;13.812;2023-08-08T05:55:13;18.90;98.50
63313;DHT22;49442;45.640;13.812;2023-08-08T05:57:39;19.00;98.10
63313;DHT22;49442;45.640;13.812;2023-08-08T06:00:05;19.00;98.30
63313;DHT22;49442;45.640;13.812;2023-08-08T06:02:33;19.10;98.80
63313;DHT22;49442;45.640;13.812;2023-08-08T06:04:59;19.10;99.40
63313;DHT22;49442;45.640;13.812;2023-08-08T06:07:25;19.20;99.70
63313;DHT22;49442;45.640;13.812;2023-08-08T06:09:50;19.20;99.70
63313;DHT22;49442;45.640;13.812;2023-08-08T06:12:16;19.20;99.90
63313;DHT22;49442;45.640;13.812;2023-08-08T06:14:41;19.30;98.80
63313;DHT22;49442;45.640;13.812;2023-08-08T06:17:07;19.40;99.80
63313;DHT22;49442;45.640;13.812;2023-08-08T06:19:33;19.50;99.10
63313;DHT22;49442;45.640;13.812;2023-08-08T06:21:59;19.50;99.10
63313;DHT22;49442;45.640;13.812;2023-08-08T06:24:24;19.60;99.20
63313;DHT22;49442;45.640;13.812;2023-08-08T06:26:50;19.80;98.40
63313;DHT22;49442;45.640;13.812;2023-08-08T06:29:16;19.80;98.30
63313;DHT22;49442;45.640;13.812;2023-08-08T06:31:42;19.80;98.70
63313;DHT22;49442;45.640;13.812;2023-08-08T06:34:07;19.90;99.10
63313;DHT22;49442;45.640;13.812;2023-08-08T06:36:33;19.80;98.60
63313;DHT22;49442;45.640;13.812;2023-08-08T06:38:59;19.80;99.10
63313;DHT22;49442;45.640;13.812;2023-08-08T06:41:25;19.90;99.90
63313;DHT22;49442;45.640;13.812;2023-08-08T06:43:51;20.00;99.90
63313;DHT22;49442;45.640;13.812;2023-08-08T06:46:16;20.10;99.90
63313;DHT22;49442;45.640;13.812;2023-08-08T06:48:43;20.20;99.50
63313;DHT22;49442;45.640;13.812;2023-08-08T06:51:10;20.30;99.70
63313;DHT22;49442;45.640;13.812;2023-08-08T06:53:35;20.40;99.90
63313;DHT22;49442;45.640;13.812;2023-08-08T06:56:01;20.40;99.50
63313;DHT22;49442;45.640;13.812;2023-08-08T06:58:27;20.40;99.40
63313;DHT22;49442;45.640;13.812;2023-08-08T07:00:52;20.50;98.90
63313;DHT22;49442;45.640;13.812;2023-08-08T07:03:18;20.40;98.80
63313;DHT22;49442;45.640;13.812;2023-08-08T07:05:44;20.50;98.80
63313;DHT22;49442;45.640;13.812;2023-08-08T07:08:09;20.40;99.60
63313;DHT22;49442;45.640;13.812;2023-08-08T07:10:35;20.50;98.60
63313;DHT22;49442;45.640;13.812;2023-08-08T07:13:01;20.50;98.00
63313;DHT22;49442;45.640;13.812;2023-08-08T07:15:27;20.60;98.70
63313;DHT22;49442;45.640;13.812;2023-08-08T07:17:53;20.70;98.50
63313;DHT22;49442;45.640;13.812;2023-08-08T07:20:19;20.80;99.00
63313;DHT22;49442;45.640;13.812;2023-08-08T07:22:45;20.80;99.50
63313;DHT22;49442;45.640;13.812;2023-08-08T07:25:11;20.80;98.50
63313;DHT22;49442;45.640;13.812;2023-08-08T07:27:37;20.80;99.60
63313;DHT22;49442;45.640;13.812;2023-08-08T07:30:04;20.80;99.90
63313;DHT22;49442;45.640;13.812;2023-08-08T07:32:30;20.80;99.90
63313;DHT22;49442;45.640;13.812;2023-08-08T07:34:55;20.70;99.90
63313;DHT22;49442;45.640;13.812;2023-08-08T07:37:21;20.70;99.70
63313;DHT22;49442;45.640;13.812;2023-08-08T07:39:50;20.80;99.90
63313;DHT22;49442;45.640;13.812;2023-08-08T07:42:17;20.90;99.90
63313;DHT22;49442;45.640;13.812;2023-08-08T07:44:42;20.90;99.90
63313;DHT22;49442;45.640;13.812;2023-08-08T07:47:08;21.00;99.90
63313;DHT22;49442;45.640;13.812;2023-08-08T07:49:33;21.10;99.90
63313;DHT22;49442;45.640;13.812;2023-08-08T07:51:59;21.20;99.90
63313;DHT22;49442;45.640;13.812;2023-08-08T07:54:25;21.30;99.90
63313;DHT22;49442;45.640;13.812;2023-08-08T07:56:50;21.40;99.90
63313;DHT22;49442;45.640;13.812;2023-08-08T07:59:16;21.50;99.90
63313;DHT22;49442;45.640;13.812;2023-08-08T08:01:42;21.70;98.20
63313;DHT22;49442;45.640;13.812;2023-08-08T08:04:07;21.80;98.80
63313;DHT22;49442;45.640;13.812;2023-08-08T08:06:33;21.80;96.40
63313;DHT22;49442;45.640;13.812;2023-08-08T08:08:59;21.80;98.00
63313;DHT22;49442;45.640;13.812;2023-08-08T08:11:24;21.80;99.00
63313;DHT22;49442;45.640;13.812;2023-08-08T08:13:50;21.80;98.10
63313;DHT22;49442;45.640;13.812;2023-08-08T08:16:16;21.90;99.90
63313;DHT22;49442;45.640;13.812;2023-08-08T08:18:41;21.90;98.40
63313;DHT22;49442;45.640;13.812;2023-08-08T08:21:07;22.00;99.10
63313;DHT22;49442;45.640;13.812;2023-08-08T08:23:33;22.00;97.70
63313;DHT22;49442;45.640;13.812;2023-08-08T08:25:59;22.00;99.00
63313;DHT22;49442;45.640;13.812;2023-08-08T08:28:26;22.00;96.50
63313;DHT22;49442;45.640;13.812;2023-08-08T08:30:52;21.90;98.30
63313;DHT22;49442;45.640;13.812;2023-08-08T08:33:18;22.00;99.90
63313;DHT22;49442;45.640;13.812;2023-08-08T08:35:43;22.20;99.90
63313;DHT22;49442;45.640;13.812;2023-08-08T08:38:11;22.20;99.90
63313;DHT22;49442;45.640;13.812;2023-08-08T08:40:38;22.10;98.30
63313;DHT22;49442;45.640;13.812;2023-08-08T08:43:07;22.20;99.90
63313;DHT22;49442;45.640;13.812;2023-08-08T08:45:37;22.30;95.10
63313;DHT22;49442;45.640;13.812;2023-08-08T08:48:08;22.20;96.20
63313;DHT22;49442;45.640;13.812;2023-08-08T08:50:35;22.40;99.80
63313;DHT22;49442;45.640;13.812;2023-08-08T08:53:01;22.50;96.40
63313;DHT22;49442;45.640;13.812;2023-08-08T08:55:27;22.60;95.00
63313;DHT22;49442;45.640;13.812;2023-08-08T08:57:53;22.50;94.00
63313;DHT22;49442;45.640;13.812;2023-08-08T09:00:20;22.50;96.70
63313;DHT22;49442;45.640;13.812;2023-08-08T09:02:46;22.60;97.80
63313;DHT22;49442;45.640;13.812;2023-08-08T09:05:12;22.60;98.60
63313;DHT22;49442;45.640;13.812;2023-08-08T09:07:39;22.40;96.70
63313;DHT22;49442;45.640;13.812;2023-08-08T09:10:05;22.40;99.60
63313;DHT22;49442;45.640;13.812;2023-08-08T09:12:31;22.40;99.90
63313;DHT22;49442;45.640;13.812;2023-08-08T09:14:57;22.50;99.90
63313;DHT22;49442;45.640;13.812;2023-08-08T09:17:27;22.40;99.90
63313;DHT22;49442;45.640;13.812;2023-08-08T09:19:55;22.40;98.90
63313;DHT22;49442;45.640;13.812;2023-08-08T09:22:23;22.50;97.30
63313;DHT22;49442;45.640;13.812;2023-08-08T09:24:50;22.40;96.50
63313;DHT22;49442;45.640;13.812;2023-08-08T09:27:16;22.40;95.90
63313;DHT22;49442;45.640;13.812;2023-08-08T09:29:42;22.40;99.10
63313;DHT22;49442;45.640;13.812;2023-08-08T09:32:08;22.30;96.90
63313;DHT22;49442;45.640;13.812;2023-08-08T09:34:34;22.20;95.60
63313;DHT22;49442;45.640;13.812;2023-08-08T09:37:00;22.20;96.20
63313;DHT22;49442;45.640;13.812;2023-08-08T09:39:27;22.30;99.80
63313;DHT22;49442;45.640;13.812;2023-08-08T09:41:53;22.50;97.60
63313;DHT22;49442;45.640;13.812;2023-08-08T09:44:23;22.50;96.80
63313;DHT22;49442;45.640;13.812;2023-08-08T09:46:50;22.40;98.70
63313;DHT22;49442;45.640;13.812;2023-08-08T09:49:16;22.40;98.80
63313;DHT22;49442;45.640;13.812;2023-08-08T09:51:43;22.40;99.20
63313;DHT22;49442;45.640;13.812;2023-08-08T09:54:09;22.40;98.70
63313;DHT22;49442;45.640;13.812;2023-08-08T09:56:36;22.30;99.90
63313;DHT22;49442;45.640;13.812;2023-08-08T09:59:02;22.10;99.90
63313;DHT22;49442;45.640;13.812;2023-08-08T10:01:30;22.10;99.90
63313;DHT22;49442;45.640;13.812;2023-08-08T10:03:57;22.10;99.90
63313;DHT22;49442;45.640;13.812;2023-08-08T10:06:23;22.00;99.90
63313;DHT22;49442;45.640;13.812;2023-08-08T10:08:49;22.20;99.90
63313;DHT22;49442;45.640;13.812;2023-08-08T10:11:15;22.20;99.90
63313;DHT22;49442;45.640;13.812;2023-08-08T10:13:49;22.40;99.90
63313;DHT22;49442;45.640;13.812;2023-08-08T10:16:16;22.40;96.60
63313;DHT22;49442;45.640;13.812;2023-08-08T10:18:44;22.40;98.30
63313;DHT22;49442;45.640;13.812;2023-08-08T10:21:11;22.40;99.10
63313;DHT22;49442;45.640;13.812;2023-08-08T10:23:39;22.60;99.90
63313;DHT22;49442;45.640;13.812;2023-08-08T10:26:16;22.70;97.80
63313;DHT22;49442;45.640;13.812;2023-08-08T10:28:55;22.80;99.90
63313;DHT22;49442;45.640;13.812;2023-08-08T10:31:22;23.00;98.90
63313;DHT22;49442;45.640;13.812;2023-08-08T10:33:47;23.10;98.10
63313;DHT22;49442;45.640;13.812;2023-08-08T10:36:13;23.30;98.20
63313;DHT22;49442;45.640;13.812;2023-08-08T10:38:49;23.40;94.40
63313;DHT22;49442;45.640;13.812;2023-08-08T10:41:20;23.30;95.70
63313;DHT22;49442;45.640;13.812;2023-08-08T10:44:08;23.30;95.50
63313;DHT22;49442;45.640;13.812;2023-08-08T10:46:34;23.40;94.90
63313;DHT22;49442;45.640;13.812;2023-08-08T10:49:02;23.30;96.70
63313;DHT22;49442;45.640;13.812;2023-08-08T10:51:38;23.30;96.00
63313;DHT22;49442;45.640;13.812;2023-08-08T10:54:13;23.40;96.60
63313;DHT22;49442;45.640;13.812;2023-08-08T10:56:40;23.50;93.40
63313;DHT22;49442;45.640;13.812;2023-08-08T10:59:27;23.50;92.40
63313;DHT22;49442;45.640;13.812;2023-08-08T11:01:55;23.60;93.80
63313;DHT22;49442;45.640;13.812;2023-08-08T11:04:23;23.60;93.60
63313;DHT22;49442;45.640;13.812;2023-08-08T11:06:49;23.60;94.50
63313;DHT22;49442;45.640;13.812;2023-08-08T11:09:16;23.70;93.80
63313;DHT22;49442;45.640;13.812;2023-08-08T11:11:43;23.70;91.90
63313;DHT22;49442;45.640;13.812;2023-08-08T11:14:14;23.80;94.70
63313;DHT22;49442;45.640;13.812;2023-08-08T11:16:41;23.80;93.40
63313;DHT22;49442;45.640;13.812;2023-08-08T11:19:08;23.90;92.70
63313;DHT22;49442;45.640;13.812;2023-08-08T11:21:37;23.90;93.40
63313;DHT22;49442;45.640;13.812;2023-08-08T11:24:04;23.80;91.30
63313;DHT22;49442;45.640;13.812;2023-08-08T11:26:30;23.60;88.70
63313;DHT22;49442;45.640;13.812;2023-08-08T11:28:59;23.60;88.30
63313;DHT22;49442;45.640;13.812;2023-08-08T11:31:26;23.70;97.70
63313;DHT22;49442;45.640;13.812;2023-08-08T11:33:53;23.90;93.50
63313;DHT22;49442;45.640;13.812;2023-08-08T11:36:20;24.00;92.30
63313;DHT22;49442;45.640;13.812;2023-08-08T11:38:46;24.10;91.40
63313;DHT22;49442;45.640;13.812;2023-08-08T11:41:17;24.10;93.60
63313;DHT22;49442;45.640;13.812;2023-08-08T11:43:45;24.20;93.80
63313;DHT22;49442;45.640;13.812;2023-08-08T11:46:15;24.20;92.30
63313;DHT22;49442;45.640;13.812;2023-08-08T11:48:41;24.30;92.40
63313;DHT22;49442;45.640;13.812;2023-08-08T11:51:08;24.20;88.00
63313;DHT22;49442;45.640;13.812;2023-08-08T11:53:35;24.00;88.60
63313;DHT22;49442;45.640;13.812;2023-08-08T11:56:04;24.00;90.40
63313;DHT22;49442;45.640;13.812;2023-08-08T11:58:30;24.10;91.80
63313;DHT22;49442;45.640;13.812;2023-08-08T12:00:59;24.20;91.40
63313;DHT22;49442;45.640;13.812;2023-08-08T12:03:26;24.20;91.60
63313;DHT22;49442;45.640;13.812;2023-08-08T12:05:51;24.10;89.50
63313;DHT22;49442;45.640;13.812;2023-08-08T12:08:21;24.10;91.60
63313;DHT22;49442;45.640;13.812;2023-08-08T12:10:51;24.10;92.10
63313;DHT22;49442;45.640;13.812;2023-08-08T12:13:23;24.10;88.50
63313;DHT22;49442;45.640;13.812;2023-08-08T12:15:52;24.00;89.50
63313;DHT22;49442;45.640;13.812;2023-08-08T12:18:19;24.10;92.80
63313;DHT22;49442;45.640;13.812;2023-08-08T12:20:45;24.20;92.30
63313;DHT22;49442;45.640;13.812;2023-08-08T12:23:12;24.30;91.40
63313;DHT22;49442;45.640;13.812;2023-08-08T12:25:38;24.40;91.50
63313;DHT22;49442;45.640;13.812;2023-08-08T12:28:05;24.40;92.30
63313;DHT22;49442;45.640;13.812;2023-08-08T12:30:31;24.40;93.30
63313;DHT22;49442;45.640;13.812;2023-08-08T12:32:57;24.20;93.00
63313;DHT22;49442;45.640;13.812;2023-08-08T12:35:23;24.20;92.30
63313;DHT22;49442;45.640;13.812;2023-08-08T12:37:52;24.10;93.80
63313;DHT22;49442;45.640;13.812;2023-08-08T12:40:17;24.20;93.00
63313;DHT22;49442;45.640;13.812;2023-08-08T12:42:43;24.20;92.40
63313;DHT22;49442;45.640;13.812;2023-08-08T12:45:09;24.30;93.40
63313;DHT22;49442;45.640;13.812;2023-08-08T12:47:36;24.40;93.50
63313;DHT22;49442;45.640;13.812;2023-08-08T12:50:06;24.20;89.50
63313;DHT22;49442;45.640;13.812;2023-08-08T12:52:33;24.30;92.80
63313;DHT22;49442;45.640;13.812;2023-08-08T12:54:59;24.30;95.70
63313;DHT22;49442;45.640;13.812;2023-08-08T12:57:25;24.40;94.60
63313;DHT22;49442;45.640;13.812;2023-08-08T12:59:50;24.50;95.10
63313;DHT22;49442;45.640;13.812;2023-08-08T13:02:16;24.60;94.20
63313;DHT22;49442;45.640;13.812;2023-08-08T13:04:42;24.50;92.60
63313;DHT22;49442;45.640;13.812;2023-08-08T13:07:07;24.30;95.40
63313;DHT22;49442;45.640;13.812;2023-08-08T13:09:34;24.50;94.70
63313;DHT22;49442;45.640;13.812;2023-08-08T13:12:00;24.50;95.50
63313;DHT22;49442;45.640;13.812;2023-08-08T13:14:26;24.60;96.00
63313;DHT22;49442;45.640;13.812;2023-08-08T13:16:51;24.50;97.10
63313;DHT22;49442;45.640;13.812;2023-08-08T13:19:19;24.60;97.30
63313;DHT22;49442;45.640;13.812;2023-08-08T13:21:46;24.60;96.30
63313;DHT22;49442;45.640;13.812;2023-08-08T13:24:12;24.60;96.50
63313;DHT22;49442;45.640;13.812;2023-08-08T13:26:41;24.60;97.20
63313;DHT22;49442;45.640;13.812;2023-08-08T13:29:07;24.60;97.00
63313;DHT22;49442;45.640;13.812;2023-08-08T13:31:34;24.40;96.50
63313;DHT22;49442;45.640;13.812;2023-08-08T13:33:59;24.20;96.40
63313;DHT22;49442;45.640;13.812;2023-08-08T13:36:25;24.30;99.10
63313;DHT22;49442;45.640;13.812;2023-08-08T13:38:51;24.50;98.00
63313;DHT22;49442;45.640;13.812;2023-08-08T13:41:16;24.20;95.50
63313;DHT22;49442;45.640;13.812;2023-08-08T13:43:42;24.00;96.10
63313;DHT22;49442;45.640;13.812;2023-08-08T13:46:07;24.20;98.00
63313;DHT22;49442;45.640;13.812;2023-08-08T13:48:35;24.30;97.50
63313;DHT22;49442;45.640;13.812;2023-08-08T13:51:02;24.40;98.90
63313;DHT22;49442;45.640;13.812;2023-08-08T13:53:28;24.50;99.90
63313;DHT22;49442;45.640;13.812;2023-08-08T13:55:54;24.60;99.00
63313;DHT22;49442;45.640;13.812;2023-08-08T13:58:23;24.70;98.20
63313;DHT22;49442;45.640;13.812;2023-08-08T14:00:49;24.70;99.00
63313;DHT22;49442;45.640;13.812;2023-08-08T14:03:15;24.60;99.80
63313;DHT22;49442;45.640;13.812;2023-08-08T14:05:43;24.60;99.50
63313;DHT22;49442;45.640;13.812;2023-08-08T14:08:10;24.40;99.90
63313;DHT22;49442;45.640;13.812;2023-08-08T14:10:39;24.40;99.90
63313;DHT22;49442;45.640;13.812;2023-08-08T14:13:05;24.40;99.90
63313;DHT22;49442;45.640;13.812;2023-08-08T14:15:30;24.30;99.00
63313;DHT22;49442;45.640;13.812;2023-08-08T14:17:58;24.40;99.90
63313;DHT22;49442;45.640;13.812;2023-08-08T14:20:25;24.50;99.90
63313;DHT22;49442;45.640;13.812;2023-08-08T14:22:51;24.60;99.90
63313;DHT22;49442;45.640;13.812;2023-08-08T14:25:16;24.70;99.90
63313;DHT22;49442;45.640;13.812;2023-08-08T14:27:42;24.70;99.90
63313;DHT22;49442;45.640;13.812;2023-08-08T14:30:08;24.60;98.80
63313;DHT22;49442;45.640;13.812;2023-08-08T14:32:34;24.20;99.10
63313;DHT22;49442;45.640;13.812;2023-08-08T14:35:02;24.30;99.90
63313;DHT22;49442;45.640;13.812;2023-08-08T14:37:28;24.40;99.90
63313;DHT22;49442;45.640;13.812;2023-08-08T14:39:54;24.50;99.90
63313;DHT22;49442;45.640;13.812;2023-08-08T14:42:19;24.50;99.80
63313;DHT22;49442;45.640;13.812;2023-08-08T14:44:45;24.40;99.90
63313;DHT22;49442;45.640;13.812;2023-08-08T14:47:11;24.40;99.90
63313;DHT22;49442;45.640;13.812;2023-08-08T14:49:39;24.50;99.90
63313;DHT22;49442;45.640;13.812;2023-08-08T14:52:05;24.60;99.90
63313;DHT22;49442;45.640;13.812;2023-08-08T14:54:31;24.60;99.90
63313;DHT22;49442;45.640;13.812;2023-08-08T14:56:57;24.60;99.90
63313;DHT22;49442;45.640;13.812;2023-08-08T14:59:23;24.60;99.90
63313;DHT22;49442;45.640;13.812;2023-08-08T15:01:49;24.70;99.90
63313;DHT22;49442;45.640;13.812;2023-08-08T15:04:14;24.60;99.90
63313;DHT22;49442;45.640;13.812;2023-08-08T15:06:41;24.60;99.90
63313;DHT22;49442;45.640;13.812;2023-08-08T15:09:07;24.40;99.70
63313;DHT22;49442;45.640;13.812;2023-08-08T15:11:32;24.50;99.90
63313;DHT22;49442;45.640;13.812;2023-08-08T15:13:58;24.50;99.90